createdAt,value
2019-05-07T00:00:53.043Z,0
2019-05-07T00:01:55.380Z,0
2019-05-07T00:02:52.213Z,0
2019-05-07T00:03:52.841Z,0
2019-05-07T00:04:52.320Z,0
2019-05-07T00:09:17.462Z,0
2019-05-07T00:09:32.256Z,0
2019-05-07T00:10:33.218Z,0
2019-05-07T00:11:30.297Z,0
2019-05-07T00:12:32.277Z,0
2019-05-07T00:13:30.610Z,0
2019-05-07T00:14:31.954Z,0
2019-05-07T00:15:32.731Z,0
2019-05-07T00:16:32.491Z,0
2019-05-07T00:17:32.266Z,0
2019-05-07T00:18:32.230Z,0
2019-05-07T00:19:32.385Z,0
2019-05-07T00:20:32.679Z,0
2019-05-07T00:21:32.649Z,0
2019-05-07T00:22:32.653Z,0
2019-05-07T00:23:32.472Z,0
2019-05-07T00:24:30.210Z,0
2019-05-07T00:25:32.740Z,0
2019-05-07T00:26:32.030Z,0
2019-05-07T00:27:32.029Z,0
2019-05-07T00:28:32.408Z,0
2019-05-07T00:29:37.297Z,0
2019-05-07T00:30:30.157Z,0
2019-05-07T00:31:32.578Z,0
2019-05-07T00:32:30.322Z,0
2019-05-07T00:33:32.297Z,0
2019-05-07T00:34:32.594Z,0
2019-05-07T00:35:32.368Z,0
2019-05-07T00:36:32.334Z,0
2019-05-07T00:37:32.042Z,0
2019-05-07T00:38:31.962Z,0
2019-05-07T00:39:29.775Z,0
2019-05-07T00:40:32.091Z,0
2019-05-07T00:41:31.854Z,0
2019-05-07T00:42:29.967Z,0
2019-05-07T00:43:32.201Z,0
2019-05-07T00:44:29.952Z,0
2019-05-07T00:45:32.580Z,0
2019-05-07T00:46:32.130Z,0
2019-05-07T00:47:30.101Z,0
2019-05-07T00:48:28.933Z,0
2019-05-07T00:49:29.963Z,0
2019-05-07T00:50:30.444Z,0
2019-05-07T00:51:30.470Z,0
2019-05-07T00:52:32.945Z,0
2019-05-07T00:53:28.997Z,0
2019-05-07T00:54:32.482Z,0
2019-05-07T00:55:32.554Z,0
2019-05-07T01:00:48.716Z,0
2019-05-07T01:01:02.532Z,0
2019-05-07T01:02:02.322Z,0
2019-05-07T01:03:03.182Z,0
2019-05-07T01:04:02.736Z,0
2019-05-07T01:05:03.169Z,0
2019-05-07T01:06:02.165Z,0
2019-05-07T01:07:02.706Z,0
2019-05-07T01:08:03.701Z,0
2019-05-07T01:09:13.307Z,0
2019-05-07T01:10:04.785Z,0
2019-05-07T01:11:02.203Z,0
2019-05-07T01:12:03.094Z,0
2019-05-07T01:13:05.436Z,0
2019-05-07T01:14:02.742Z,0
2019-05-07T01:15:02.830Z,0
2019-05-07T01:16:02.467Z,0
2019-05-07T01:17:02.365Z,0
2019-05-07T01:18:02.829Z,0
2019-05-07T01:19:02.149Z,0
2019-05-07T01:20:02.875Z,0
2019-05-07T01:21:02.372Z,0
2019-05-07T01:22:03.141Z,0
2019-05-07T01:23:05.527Z,0
2019-05-07T01:24:03.515Z,0
2019-05-07T01:25:02.311Z,0
2019-05-07T01:26:03.035Z,0
2019-05-07T01:27:02.825Z,0
2019-05-07T01:28:02.587Z,0
2019-05-07T01:29:05.787Z,0
2019-05-07T01:30:03.253Z,0
2019-05-07T01:31:02.207Z,0
2019-05-07T01:32:03.082Z,0
2019-05-07T01:33:02.746Z,0
2019-05-07T01:34:02.523Z,0
2019-05-07T01:35:02.431Z,0
2019-05-07T01:36:05.918Z,0
2019-05-07T01:37:05.493Z,0
2019-05-07T01:38:03.171Z,0
2019-05-07T01:39:13.044Z,0
2019-05-07T01:40:03.006Z,0
2019-05-07T01:41:05.854Z,0
2019-05-07T01:42:03.760Z,0
2019-05-07T01:43:03.072Z,0
2019-05-07T01:44:05.258Z,0
2019-05-07T01:45:02.258Z,0
2019-05-07T01:46:03.129Z,0
2019-05-07T01:47:02.942Z,0
2019-05-07T01:48:04.034Z,0
2019-05-07T01:49:05.703Z,0
2019-05-07T01:50:05.753Z,0
2019-05-07T01:51:03.553Z,0
2019-05-07T01:52:02.431Z,0
2019-05-07T01:53:03.978Z,0
2019-05-07T01:54:02.277Z,0
2019-05-07T01:55:03.309Z,0
2019-05-07T01:56:03.483Z,0
2019-05-07T01:57:02.802Z,0
2019-05-07T01:58:07.228Z,0
2019-05-07T01:59:02.518Z,0
2019-05-07T02:00:02.807Z,0
2019-05-07T02:01:02.734Z,0
2019-05-07T02:06:19.532Z,0
2019-05-07T02:06:32.638Z,0
2019-05-07T02:07:30.575Z,0
2019-05-07T02:08:32.771Z,0
2019-05-07T02:09:30.729Z,0
2019-05-07T02:10:32.154Z,0
2019-05-07T02:11:32.533Z,0
2019-05-07T02:12:31.886Z,0
2019-05-07T02:13:33.712Z,0
2019-05-07T02:14:32.854Z,0
2019-05-07T02:15:32.335Z,0
2019-05-07T02:16:32.622Z,0
2019-05-07T02:17:32.146Z,0
2019-05-07T02:18:32.553Z,0
2019-05-07T02:19:32.714Z,0
2019-05-07T02:20:32.113Z,0
2019-05-07T02:21:32.746Z,0
2019-05-07T02:22:31.975Z,0
2019-05-07T02:23:32.533Z,0
2019-05-07T02:24:30.709Z,0
2019-05-07T02:25:32.286Z,0
2019-05-07T02:26:32.110Z,0
2019-05-07T02:27:32.626Z,0
2019-05-07T02:28:32.760Z,0
2019-05-07T02:29:32.312Z,0
2019-05-07T02:30:34.882Z,0
2019-05-07T02:31:33.557Z,0
2019-05-07T02:32:33.343Z,0
2019-05-07T02:33:31.011Z,0
2019-05-07T02:34:34.146Z,0
2019-05-07T02:35:33.232Z,0
2019-05-07T02:36:33.940Z,0
2019-05-07T02:37:58.998Z,0
2019-05-07T02:38:33.630Z,0
2019-05-07T02:43:48.792Z,0
2019-05-07T02:44:07.022Z,0
2019-05-07T02:45:06.934Z,0
2019-05-07T02:46:30.710Z,0
2019-05-07T02:47:03.964Z,0
2019-05-07T02:48:03.544Z,0
2019-05-07T02:49:05.917Z,0
2019-05-07T02:50:05.816Z,0
2019-05-07T02:51:04.211Z,0
2019-05-07T02:52:06.298Z,0
2019-05-07T02:53:04.087Z,0
2019-05-07T02:54:03.817Z,0
2019-05-07T02:55:06.785Z,0
2019-05-07T02:56:03.673Z,0
2019-05-07T02:57:05.928Z,0
2019-05-07T02:58:06.091Z,0
2019-05-07T02:59:03.990Z,0
2019-05-07T03:00:06.923Z,0
2019-05-07T03:01:04.675Z,0
2019-05-07T03:02:06.323Z,0
2019-05-07T03:03:04.281Z,0
2019-05-07T03:04:06.169Z,0
2019-05-07T03:05:05.096Z,0
2019-05-07T03:06:05.779Z,0
2019-05-07T03:07:03.806Z,0
2019-05-07T03:08:05.786Z,0
2019-05-07T03:09:05.797Z,0
2019-05-07T03:10:06.291Z,0
2019-05-07T03:11:05.892Z,0
2019-05-07T03:12:06.490Z,0
2019-05-07T03:13:05.941Z,0
2019-05-07T03:14:05.567Z,0
2019-05-07T03:15:04.418Z,0
2019-05-07T03:16:03.720Z,0
2019-05-07T03:17:05.902Z,0
2019-05-07T03:18:06.226Z,0
2019-05-07T03:19:04.177Z,0
2019-05-07T03:20:06.261Z,0
2019-05-07T03:21:03.517Z,0
2019-05-07T03:22:06.507Z,0
2019-05-07T03:23:06.169Z,0
2019-05-07T03:24:16.582Z,0
2019-05-07T03:25:05.853Z,0
2019-05-07T03:26:04.340Z,4
2019-05-07T03:27:05.917Z,0
2019-05-07T03:28:04.307Z,0
2019-05-07T03:29:06.481Z,0
2019-05-07T03:30:07.628Z,4
2019-05-07T03:31:08.722Z,0
2019-05-07T03:32:09.015Z,0
2019-05-07T03:33:09.822Z,4
2019-05-07T03:34:09.438Z,0
2019-05-07T03:35:15.968Z,4
2019-05-07T03:36:15.845Z,4
2019-05-07T03:37:09.089Z,0
2019-05-07T03:38:06.250Z,4
2019-05-07T03:39:03.366Z,4
2019-05-07T03:40:06.716Z,4
2019-05-07T03:41:06.372Z,8
2019-05-07T03:42:06.214Z,4
2019-05-07T03:43:07.790Z,8
2019-05-07T03:44:03.668Z,8
2019-05-07T03:45:06.419Z,4
2019-05-07T03:50:23.081Z,12
2019-05-07T03:50:36.506Z,8
2019-05-07T03:51:44.131Z,12
2019-05-07T03:52:36.248Z,16
2019-05-07T03:53:36.774Z,16
2019-05-07T03:54:39.221Z,16
2019-05-07T03:55:35.971Z,16
2019-05-07T03:56:35.797Z,16
2019-05-07T03:57:36.189Z,16
2019-05-07T03:58:36.797Z,20
2019-05-07T03:59:37.012Z,20
2019-05-07T04:00:35.965Z,20
2019-05-07T04:01:36.155Z,24
2019-05-07T04:02:35.915Z,24
2019-05-07T04:03:36.954Z,24
2019-05-07T04:04:35.879Z,28
2019-05-07T04:05:36.985Z,28
2019-05-07T04:06:36.250Z,28
2019-05-07T04:07:36.605Z,32
2019-05-07T04:08:36.121Z,28
2019-05-07T04:09:46.274Z,32
2019-05-07T04:10:36.548Z,36
2019-05-07T04:11:36.390Z,36
2019-05-07T04:12:36.967Z,40
2019-05-07T04:13:36.254Z,40
2019-05-07T04:14:37.266Z,40
2019-05-07T04:15:35.756Z,40
2019-05-07T04:16:35.977Z,40
2019-05-07T04:17:38.911Z,44
2019-05-07T04:18:38.439Z,44
2019-05-07T04:19:35.574Z,48
2019-05-07T04:20:36.184Z,52
2019-05-07T04:21:37.177Z,48
2019-05-07T04:22:42.697Z,52
2019-05-07T04:23:37.041Z,56
2019-05-07T04:24:36.092Z,56
2019-05-07T04:25:37.367Z,56
2019-05-07T04:26:36.646Z,56
2019-05-07T04:27:35.984Z,60
2019-05-07T04:28:39.009Z,60
2019-05-07T04:29:38.544Z,64
2019-05-07T04:30:35.919Z,68
2019-05-07T04:31:37.023Z,68
2019-05-07T04:32:36.127Z,72
2019-05-07T04:33:36.107Z,72
2019-05-07T04:34:36.425Z,80
2019-05-07T04:35:37.038Z,80
2019-05-07T04:36:36.922Z,84
2019-05-07T04:37:35.863Z,84
2019-05-07T04:38:36.101Z,88
2019-05-07T04:46:09.857Z,108
2019-05-07T04:46:26.124Z,104
2019-05-07T04:47:53.552Z,112
2019-05-07T04:48:25.789Z,112
2019-05-07T04:49:26.355Z,120
2019-05-07T04:50:54.102Z,128
2019-05-07T04:51:25.821Z,132
2019-05-07T04:52:26.417Z,132
2019-05-07T04:53:26.230Z,136
2019-05-07T04:54:26.243Z,140
2019-05-07T04:55:25.635Z,144
2019-05-07T04:56:26.627Z,148
2019-05-07T04:57:26.156Z,152
2019-05-07T04:58:26.767Z,160
2019-05-07T04:59:26.491Z,164
2019-05-07T05:00:25.635Z,168
2019-05-07T05:01:26.069Z,172
2019-05-07T05:02:26.113Z,176
2019-05-07T05:03:26.203Z,172
2019-05-07T05:04:39.629Z,184
2019-05-07T05:05:26.085Z,188
2019-05-07T05:06:24.075Z,192
2019-05-07T05:07:25.143Z,200
2019-05-07T05:08:26.173Z,224
2019-05-07T05:09:25.862Z,224
2019-05-07T05:10:25.866Z,232
2019-05-07T05:11:23.636Z,244
2019-05-07T05:12:25.924Z,252
2019-05-07T05:13:26.003Z,256
2019-05-07T05:14:25.478Z,264
2019-05-07T05:15:24.813Z,284
2019-05-07T05:16:25.103Z,276
2019-05-07T05:17:25.442Z,276
2019-05-07T05:18:24.653Z,280
2019-05-07T05:19:23.167Z,276
2019-05-07T05:20:24.867Z,280
2019-05-07T05:21:25.363Z,284
2019-05-07T05:22:26.587Z,284
2019-05-07T05:23:25.316Z,304
2019-05-07T05:24:25.262Z,328
2019-05-07T05:25:25.377Z,344
2019-05-07T05:26:24.577Z,320
2019-05-07T05:27:25.204Z,308
2019-05-07T05:28:24.531Z,312
2019-05-07T05:29:25.419Z,316
2019-05-07T05:30:24.608Z,324
2019-05-07T05:31:24.943Z,328
2019-05-07T05:32:27.072Z,320
2019-05-07T05:33:23.529Z,316
2019-05-07T05:34:24.978Z,316
2019-05-07T05:35:24.881Z,316
2019-05-07T05:36:24.871Z,324
2019-05-07T05:37:25.255Z,328
2019-05-07T05:38:25.168Z,328
2019-05-07T05:39:25.153Z,332
2019-05-07T05:40:25.282Z,336
2019-05-07T05:41:25.521Z,344
2019-05-07T05:42:25.134Z,352
2019-05-07T05:43:25.220Z,360
2019-05-07T05:50:50.116Z,404
2019-05-07T05:51:03.300Z,404
2019-05-07T05:52:04.798Z,400
2019-05-07T05:53:04.583Z,404
2019-05-07T05:54:04.692Z,416
2019-05-07T05:55:05.825Z,432
2019-05-07T05:56:04.976Z,452
2019-05-07T05:57:05.512Z,468
2019-05-07T05:58:02.718Z,480
2019-05-07T05:59:03.807Z,464
2019-05-07T06:00:05.472Z,460
2019-05-07T06:01:02.580Z,456
2019-05-07T06:02:06.251Z,468
2019-05-07T06:03:02.574Z,488
2019-05-07T06:04:03.026Z,500
2019-05-07T06:05:04.853Z,520
2019-05-07T06:06:04.669Z,532
2019-05-07T06:07:22.456Z,612
2019-05-07T06:08:04.297Z,544
2019-05-07T06:09:04.485Z,548
2019-05-07T06:10:05.133Z,576
2019-05-07T06:11:02.708Z,552
2019-05-07T06:12:02.913Z,548
2019-05-07T06:13:04.359Z,596
2019-05-07T06:14:03.744Z,568
2019-05-07T06:15:04.436Z,564
2019-05-07T06:16:03.041Z,572
2019-05-07T06:17:05.693Z,580
2019-05-07T06:18:04.043Z,608
2019-05-07T06:19:18.387Z,592
2019-05-07T06:20:03.150Z,596
2019-05-07T06:21:02.961Z,612
2019-05-07T06:22:04.769Z,624
2019-05-07T06:23:05.730Z,636
2019-05-07T06:24:05.150Z,660
2019-05-07T06:25:05.074Z,620
2019-05-07T06:26:07.515Z,612
2019-05-07T06:27:02.888Z,620
2019-05-07T06:28:04.493Z,628
2019-05-07T06:29:02.470Z,644
2019-05-07T06:30:07.136Z,660
2019-05-07T06:31:05.441Z,676
2019-05-07T06:32:03.275Z,680
2019-05-07T06:33:02.877Z,700
2019-05-07T06:34:47.384Z,696
2019-05-07T06:35:03.069Z,704
2019-05-07T06:36:03.483Z,760
2019-05-07T06:37:03.719Z,1044
2019-05-07T06:38:03.299Z,736
2019-05-07T06:39:04.545Z,748
2019-05-07T06:40:03.863Z,924
2019-05-07T06:41:05.361Z,852
2019-05-07T06:42:04.802Z,1160
2019-05-07T06:43:03.305Z,1028
2019-05-07T06:44:05.237Z,900
2019-05-07T06:45:02.977Z,1104
2019-05-07T06:46:04.479Z,1112
2019-05-07T06:47:02.637Z,1024
2019-05-07T06:48:03.386Z,1196
2019-05-07T06:49:05.022Z,1892
2019-05-07T06:50:03.277Z,1988
2019-05-07T06:51:03.214Z,1660
2019-05-07T06:52:05.556Z,1240
2019-05-07T06:53:02.794Z,1404
2019-05-07T06:54:05.432Z,1328
2019-05-07T06:55:03.304Z,2144
2019-05-07T06:56:06.117Z,1988
2019-05-07T06:57:04.508Z,1508
2019-05-07T06:58:05.730Z,1224
2019-05-07T06:59:04.915Z,2104
2019-05-07T07:00:06.047Z,2056
2019-05-07T07:01:02.441Z,2108
2019-05-07T07:02:05.872Z,1900
2019-05-07T07:03:04.653Z,1612
2019-05-07T07:04:05.930Z,1892
2019-05-07T07:05:05.444Z,1620
2019-05-07T07:06:02.839Z,1976
2019-05-07T07:07:05.411Z,1880
2019-05-07T07:08:06.079Z,1492
2019-05-07T07:09:04.972Z,2700
2019-05-07T07:10:05.933Z,1972
2019-05-07T07:11:05.294Z,2320
2019-05-07T07:12:05.254Z,1928
2019-05-07T07:13:06.136Z,2584
2019-05-07T07:14:05.206Z,2676
2019-05-07T07:15:05.416Z,1988
2019-05-07T07:16:04.564Z,2332
2019-05-07T07:17:02.795Z,1980
2019-05-07T07:18:05.858Z,1888
2019-05-07T07:19:06.037Z,1748
2019-05-07T07:20:05.395Z,1572
2019-05-07T07:21:04.706Z,1984
2019-05-07T07:22:02.466Z,2532
2019-05-07T07:23:04.984Z,4120
2019-05-07T07:24:02.969Z,4484
2019-05-07T07:25:04.683Z,3472
2019-05-07T07:26:06.024Z,3576
2019-05-07T07:27:05.107Z,3024
2019-05-07T07:28:03.008Z,3168
2019-05-07T07:29:04.571Z,2536
2019-05-07T07:30:04.717Z,2848
2019-05-07T07:31:03.451Z,2996
2019-05-07T07:32:02.641Z,3264
2019-05-07T07:33:03.906Z,3244
2019-05-07T07:34:05.568Z,3604
2019-05-07T07:35:02.543Z,3396
2019-05-07T07:36:05.067Z,3224
2019-05-07T07:37:18.695Z,3696
2019-05-07T07:38:03.550Z,3660
2019-05-07T07:39:04.668Z,3476
2019-05-07T07:40:04.710Z,2760
2019-05-07T07:41:05.450Z,2164
2019-05-07T07:42:02.954Z,3116
2019-05-07T07:43:06.399Z,3244
2019-05-07T07:44:04.976Z,3280
2019-05-07T07:45:03.289Z,3408
2019-05-07T07:46:04.978Z,3320
2019-05-07T07:47:02.754Z,3192
2019-05-07T07:48:05.358Z,3032
2019-05-07T07:49:22.194Z,3184
2019-05-07T07:50:04.989Z,2716
2019-05-07T07:51:03.147Z,2752
2019-05-07T07:56:18.848Z,2748
2019-05-07T07:57:32.468Z,2936
2019-05-07T07:58:34.829Z,1684
2019-05-07T07:59:32.825Z,2724
2019-05-07T08:00:35.645Z,2248
2019-05-07T08:01:32.984Z,2576
2019-05-07T08:02:32.309Z,2264
2019-05-07T08:03:32.931Z,1956
2019-05-07T08:04:32.190Z,1828
2019-05-07T08:05:32.651Z,1748
2019-05-07T08:06:32.621Z,1864
2019-05-07T08:07:33.035Z,1984
2019-05-07T08:08:32.089Z,2084
2019-05-07T08:09:35.089Z,2280
2019-05-07T08:10:32.606Z,2256
2019-05-07T08:11:34.442Z,1972
2019-05-07T08:12:32.670Z,1696
2019-05-07T08:13:32.502Z,1544
2019-05-07T08:14:32.513Z,1940
2019-05-07T08:15:35.533Z,1928
2019-05-07T08:16:32.729Z,1820
2019-05-07T08:17:32.685Z,1928
2019-05-07T08:18:32.748Z,1744
2019-05-07T08:19:35.748Z,1876
2019-05-07T08:20:32.705Z,1820
2019-05-07T08:21:33.145Z,1820
2019-05-07T08:22:32.928Z,1888
2019-05-07T08:23:34.459Z,1776
2019-05-07T08:24:34.548Z,1768
2019-05-07T08:25:34.817Z,1688
2019-05-07T08:26:32.362Z,1756
2019-05-07T08:27:32.567Z,1744
2019-05-07T08:28:34.532Z,1680
2019-05-07T08:29:32.650Z,1856
2019-05-07T08:30:32.684Z,1868
2019-05-07T08:31:32.153Z,1836
2019-05-07T08:32:32.629Z,1748
2019-05-07T08:33:34.798Z,1776
2019-05-07T08:34:32.574Z,1812
2019-05-07T08:35:32.641Z,1812
2019-05-07T08:36:33.087Z,1492
2019-05-07T08:37:34.760Z,1540
2019-05-07T08:38:35.422Z,1732
2019-05-07T08:39:35.303Z,1980
2019-05-07T08:40:32.595Z,1948
2019-05-07T08:41:34.490Z,1932
2019-05-07T08:42:32.156Z,1940
2019-05-07T08:43:32.288Z,1924
2019-05-07T08:44:32.558Z,1836
2019-05-07T08:45:35.266Z,1680
2019-05-07T08:46:33.969Z,1720
2019-05-07T08:47:34.606Z,1744
2019-05-07T08:48:32.438Z,1708
2019-05-07T08:49:48.219Z,1760
2019-05-07T08:50:32.650Z,1788
2019-05-07T08:51:32.674Z,1792
2019-05-07T08:52:35.343Z,1840
2019-05-07T08:53:32.769Z,1832
2019-05-07T08:54:35.202Z,1788
2019-05-07T08:55:32.330Z,1828
2019-05-07T08:56:34.441Z,1832
2019-05-07T08:57:34.537Z,1808
2019-05-07T08:58:34.366Z,1820
2019-05-07T08:59:34.548Z,1768
2019-05-07T09:00:32.718Z,1692
2019-05-07T09:01:32.514Z,1532
2019-05-07T09:02:32.567Z,1156
2019-05-07T09:03:34.983Z,1404
2019-05-07T09:04:32.608Z,1260
2019-05-07T09:05:32.415Z,1480
2019-05-07T09:06:35.223Z,1484
2019-05-07T09:07:32.318Z,1484
2019-05-07T09:08:32.171Z,1492
2019-05-07T09:09:32.522Z,1528
2019-05-07T09:10:35.050Z,1548
2019-05-07T09:11:34.584Z,1568
2019-05-07T09:12:34.694Z,1636
2019-05-07T09:13:33.241Z,1548
2019-05-07T09:14:34.708Z,1680
2019-05-07T09:15:34.713Z,1736
2019-05-07T09:16:34.490Z,1748
2019-05-07T09:17:34.546Z,1804
2019-05-07T09:18:32.251Z,1836
2019-05-07T09:19:32.338Z,1728
2019-05-07T09:20:34.710Z,1860
2019-05-07T09:21:32.265Z,1872
2019-05-07T09:22:32.461Z,1880
2019-05-07T09:23:34.561Z,1900
2019-05-07T09:24:33.201Z,1932
2019-05-07T09:25:32.515Z,1940
2019-05-07T09:26:32.404Z,1880
2019-05-07T09:27:32.678Z,1832
2019-05-07T09:28:32.631Z,1836
2019-05-07T09:29:32.406Z,1908
2019-05-07T09:30:35.632Z,1944
2019-05-07T09:31:32.308Z,1924
2019-05-07T09:32:32.630Z,904
2019-05-07T09:33:34.561Z,904
2019-05-07T09:34:32.660Z,888
2019-05-07T09:35:32.250Z,916
2019-05-07T09:36:33.191Z,856
2019-05-07T09:37:32.665Z,872
2019-05-07T09:38:32.730Z,1088
2019-05-07T09:39:32.501Z,1572
2019-05-07T09:40:34.574Z,1708
2019-05-07T09:41:32.688Z,1352
2019-05-07T09:42:33.173Z,1816
2019-05-07T09:43:32.525Z,1956
2019-05-07T09:44:32.561Z,1960
2019-05-07T09:45:32.797Z,972
2019-05-07T09:46:32.622Z,1584
2019-05-07T09:47:32.600Z,1860
2019-05-07T09:48:33.764Z,1848
2019-05-07T09:49:32.635Z,1736
2019-05-07T09:50:32.592Z,1624
2019-05-07T09:51:34.751Z,884
2019-05-07T09:52:34.796Z,804
2019-05-07T09:53:32.272Z,736
2019-05-07T09:54:32.719Z,692
2019-05-07T09:55:32.647Z,688
2019-05-07T09:56:34.967Z,704
2019-05-07T09:57:42.137Z,732
2019-05-07T09:58:45.307Z,744
2019-05-07T09:59:32.552Z,752
2019-05-07T10:00:34.894Z,740
2019-05-07T10:01:34.653Z,716
2019-05-07T10:02:34.558Z,688
2019-05-07T10:03:35.049Z,652
2019-05-07T10:04:32.734Z,620
2019-05-07T10:05:34.695Z,592
2019-05-07T10:06:32.260Z,568
2019-05-07T10:07:34.979Z,548
2019-05-07T10:08:34.725Z,536
2019-05-07T10:09:32.934Z,536
2019-05-07T10:10:32.870Z,540
2019-05-07T10:11:32.847Z,544
2019-05-07T10:12:33.058Z,548
2019-05-07T10:13:32.970Z,536
2019-05-07T10:14:33.044Z,536
2019-05-07T10:15:33.080Z,536
2019-05-07T10:16:32.274Z,540
2019-05-07T10:17:32.794Z,548
2019-05-07T10:18:32.564Z,556
2019-05-07T10:19:32.532Z,552
2019-05-07T10:20:32.809Z,552
2019-05-07T10:21:32.284Z,556
2019-05-07T10:22:34.745Z,572
2019-05-07T10:23:32.437Z,588
2019-05-07T10:24:32.183Z,612
2019-05-07T10:25:32.802Z,624
2019-05-07T10:26:32.322Z,636
2019-05-07T10:27:32.584Z,640
2019-05-07T10:28:34.675Z,648
2019-05-07T10:29:32.450Z,672
2019-05-07T10:30:32.263Z,680
2019-05-07T10:31:34.599Z,676
2019-05-07T10:32:32.348Z,676
2019-05-07T10:33:34.475Z,676
2019-05-07T10:34:32.272Z,668
2019-05-07T10:35:36.126Z,652
2019-05-07T10:36:34.633Z,640
2019-05-07T10:37:34.374Z,628
2019-05-07T10:38:32.275Z,624
2019-05-07T10:39:32.607Z,624
2019-05-07T10:40:32.782Z,620
2019-05-07T10:41:34.460Z,620
2019-05-07T10:42:32.498Z,616
2019-05-07T10:43:35.306Z,608
2019-05-07T10:44:34.704Z,596
2019-05-07T10:45:32.385Z,588
2019-05-07T10:46:34.493Z,576
2019-05-07T10:47:32.284Z,572
2019-05-07T10:48:34.953Z,568
2019-05-07T10:49:34.350Z,568
2019-05-07T10:50:45.171Z,560
2019-05-07T10:51:32.341Z,560
2019-05-07T10:52:34.402Z,560
2019-05-07T10:53:34.678Z,564
2019-05-07T10:54:32.694Z,568
2019-05-07T10:55:32.869Z,576
2019-05-07T10:56:32.687Z,584
2019-05-07T10:57:32.859Z,592
2019-05-07T10:58:34.567Z,616
2019-05-07T10:59:32.261Z,636
2019-05-07T11:00:33.060Z,656
2019-05-07T11:01:32.852Z,676
2019-05-07T11:02:34.989Z,692
2019-05-07T11:03:34.953Z,704
2019-05-07T11:04:48.524Z,736
2019-05-07T11:05:35.336Z,748
2019-05-07T11:06:32.448Z,752
2019-05-07T11:07:32.776Z,752
2019-05-07T11:08:35.616Z,764
2019-05-07T11:09:32.785Z,768
2019-05-07T11:10:32.746Z,780
2019-05-07T11:11:34.496Z,828
2019-05-07T11:12:34.882Z,876
2019-05-07T11:13:32.521Z,892
2019-05-07T11:15:39.391Z,900
2019-05-07T11:15:52.705Z,924
2019-05-07T11:16:52.038Z,944
2019-05-07T11:17:52.076Z,972
2019-05-07T11:18:51.730Z,980
2019-05-07T11:19:51.420Z,932
2019-05-07T11:20:58.767Z,916
2019-05-07T11:21:52.083Z,928
2019-05-07T11:22:52.170Z,976
2019-05-07T11:23:52.166Z,996
2019-05-07T11:24:52.197Z,1004
2019-05-07T11:25:52.629Z,1012
2019-05-07T11:26:53.105Z,1028
2019-05-07T11:27:52.318Z,1072
2019-05-07T11:28:51.467Z,1152
2019-05-07T11:29:51.811Z,1164
2019-05-07T11:30:51.411Z,1176
2019-05-07T11:31:52.483Z,1112
2019-05-07T11:32:52.203Z,1176
2019-05-07T11:33:52.123Z,1744
2019-05-07T11:34:52.800Z,1176
2019-05-07T11:35:52.756Z,1288
2019-05-07T11:36:52.364Z,1324
2019-05-07T11:37:54.700Z,1328
2019-05-07T11:38:52.775Z,1164
2019-05-07T11:39:52.304Z,1124
2019-05-07T11:40:51.813Z,1276
2019-05-07T11:41:51.829Z,1428
2019-05-07T11:42:54.634Z,1364
2019-05-07T11:43:54.036Z,1288
2019-05-07T11:44:52.110Z,1340
2019-05-07T11:45:53.881Z,1080
2019-05-07T11:46:55.051Z,1080
2019-05-07T11:47:51.527Z,1152
2019-05-07T11:48:52.435Z,1260
2019-05-07T11:49:52.430Z,1268
2019-05-07T11:51:06.598Z,1428
2019-05-07T11:55:34.813Z,1284
2019-05-07T11:56:35.511Z,1232
2019-05-07T11:57:34.826Z,1372
2019-05-07T11:58:35.256Z,1664
2019-05-07T11:59:35.668Z,1216
2019-05-07T12:00:35.087Z,1128
2019-05-07T12:01:55.803Z,964
2019-05-07T12:02:37.197Z,904
2019-05-07T12:03:35.312Z,836
2019-05-07T12:04:37.270Z,784
2019-05-07T12:05:35.919Z,744
2019-05-07T12:06:35.311Z,720
2019-05-07T12:07:35.441Z,708
2019-05-07T12:08:56.854Z,720
2019-05-07T12:09:36.796Z,736
2019-05-07T12:10:35.533Z,868
2019-05-07T12:11:34.927Z,1064
2019-05-07T12:12:35.545Z,884
2019-05-07T12:13:35.149Z,1028
2019-05-07T12:14:40.369Z,876
2019-05-07T12:15:35.258Z,816
2019-05-07T12:16:37.147Z,780
2019-05-07T12:17:38.286Z,780
2019-05-07T12:18:37.454Z,788
2019-05-07T12:19:35.793Z,792
2019-05-07T12:20:35.250Z,788
2019-05-07T12:21:35.078Z,796
2019-05-07T12:22:34.873Z,808
2019-05-07T12:23:35.892Z,824
2019-05-07T12:24:35.829Z,808
2019-05-07T12:25:37.167Z,788
2019-05-07T12:26:34.961Z,776
2019-05-07T12:27:34.974Z,768
2019-05-07T12:28:35.491Z,748
2019-05-07T12:29:35.145Z,720
2019-05-07T12:30:35.663Z,692
2019-05-07T12:31:36.263Z,656
2019-05-07T12:32:35.050Z,636
2019-05-07T12:33:35.175Z,624
2019-05-07T12:34:37.103Z,612
2019-05-07T12:35:34.843Z,596
2019-05-07T12:36:37.555Z,580
2019-05-07T12:37:37.213Z,552
2019-05-07T12:38:35.022Z,528
2019-05-07T12:39:36.995Z,508
2019-05-07T12:40:35.417Z,492
2019-05-07T12:41:36.496Z,480
2019-05-07T12:42:35.992Z,472
2019-05-07T12:43:37.162Z,460
2019-05-07T12:44:37.732Z,448
2019-05-07T12:45:34.928Z,432
2019-05-07T12:46:36.140Z,420
2019-05-07T12:47:35.127Z,408
2019-05-07T12:48:35.246Z,400
2019-05-07T12:49:35.199Z,392
2019-05-07T12:50:35.024Z,384
2019-05-07T12:51:45.350Z,384
2019-05-07T12:52:37.326Z,388
2019-05-07T12:53:37.031Z,384
2019-05-07T12:54:38.998Z,384
2019-05-07T12:55:35.052Z,384
2019-05-07T12:56:37.376Z,396
2019-05-07T12:57:34.881Z,404
2019-05-07T12:58:34.971Z,416
2019-05-07T12:59:34.955Z,424
2019-05-07T13:00:39.530Z,436
2019-05-07T13:01:35.419Z,452
2019-05-07T13:02:52.035Z,472
2019-05-07T13:03:35.067Z,484
2019-05-07T13:04:35.216Z,508
2019-05-07T13:05:35.163Z,520
2019-05-07T13:06:35.665Z,544
2019-05-07T13:07:35.717Z,588
2019-05-07T13:08:35.630Z,696
2019-05-07T13:09:37.684Z,704
2019-05-07T13:10:38.748Z,756
2019-05-07T13:11:35.233Z,804
2019-05-07T13:12:37.488Z,868
2019-05-07T13:13:37.499Z,924
2019-05-07T13:14:34.942Z,912
2019-05-07T13:15:38.370Z,1540
2019-05-07T13:16:35.118Z,880
2019-05-07T13:17:36.414Z,880
2019-05-07T13:18:35.378Z,892
2019-05-07T13:19:37.396Z,916
2019-05-07T13:20:37.418Z,924
2019-05-07T13:21:50.124Z,880
2019-05-07T13:22:35.261Z,868
2019-05-07T13:23:37.115Z,880
2019-05-07T13:24:37.245Z,920
2019-05-07T13:25:37.885Z,1256
2019-05-07T13:26:37.420Z,1332
2019-05-07T13:27:39.955Z,1288
2019-05-07T13:28:34.977Z,920
2019-05-07T13:29:35.797Z,1080
2019-05-07T13:30:34.969Z,1424
2019-05-07T13:31:37.765Z,1244
2019-05-07T13:32:37.155Z,1440
2019-05-07T13:33:41.968Z,956
2019-05-07T13:34:39.049Z,828
2019-05-07T13:35:35.594Z,812
2019-05-07T13:36:37.701Z,796
2019-05-07T13:37:35.218Z,1080
2019-05-07T13:38:38.171Z,1496
2019-05-07T13:39:35.328Z,1432
2019-05-07T13:40:39.256Z,876
2019-05-07T13:41:35.738Z,1184
2019-05-07T13:42:38.037Z,1340
2019-05-07T13:43:35.283Z,1620
2019-05-07T13:44:37.194Z,1640
2019-05-07T13:45:37.012Z,1772
2019-05-07T13:46:35.014Z,1740
2019-05-07T13:47:35.261Z,1728
2019-05-07T13:48:36.995Z,1724
2019-05-07T13:49:35.482Z,1700
2019-05-07T13:50:35.304Z,1676
2019-05-07T13:51:38.550Z,1560
2019-05-07T13:52:35.643Z,1408
2019-05-07T13:53:35.873Z,1600
2019-05-07T13:54:35.131Z,1524
2019-05-07T13:55:37.534Z,1536
2019-05-07T13:56:35.323Z,1276
2019-05-07T13:57:37.621Z,712
2019-05-07T13:58:35.580Z,652
2019-05-07T13:59:37.270Z,612
2019-05-07T14:00:35.124Z,596
2019-05-07T14:01:35.486Z,600
2019-05-07T14:02:36.990Z,612
2019-05-07T14:03:36.256Z,624
2019-05-07T14:04:35.262Z,568
2019-05-07T14:05:38.069Z,572
2019-05-07T14:06:35.142Z,628
2019-05-07T14:07:35.007Z,920
2019-05-07T14:08:37.312Z,792
2019-05-07T14:09:35.291Z,760
2019-05-07T14:10:45.125Z,624
2019-05-07T14:11:37.626Z,600
2019-05-07T14:12:38.964Z,604
2019-05-07T14:13:35.412Z,672
2019-05-07T14:14:39.652Z,632
2019-05-07T14:15:37.773Z,620
2019-05-07T14:16:35.072Z,588
2019-05-07T14:17:36.298Z,652
2019-05-07T14:18:35.360Z,696
2019-05-07T14:19:35.452Z,1236
2019-05-07T14:20:35.705Z,860
2019-05-07T14:21:35.236Z,1172
2019-05-07T14:26:55.604Z,616
2019-05-07T14:27:07.261Z,620
2019-05-07T14:28:07.578Z,672
2019-05-07T14:29:08.361Z,676
2019-05-07T14:30:08.038Z,632
2019-05-07T14:31:07.449Z,708
2019-05-07T14:32:07.549Z,644
2019-05-07T14:33:08.681Z,676
2019-05-07T14:34:08.124Z,1220
2019-05-07T14:35:07.394Z,1292